ADDS METAR Data INFO
IDs: Format: Raw Decoded Include TAF

Data at: 2017 UTC 18 Jul 2018

KACK 181953Z 03015KT 10SM CLR 24/17 A2985 RMK AO2 SLP109 T02440172
KACK 181853Z 03016G23KT 10SM CLR 25/16 A2984 RMK AO2 SLP105 T02500161
KACK 181753Z 02017KT 10SM BKN023 24/18 A2984 RMK AO2 SLP104 T02440178 10250 20211 53003
KACK 181735Z 02018G21KT 10SM BKN020 BKN065 24/19 A2984 RMK AO2 T02440189
KACK 181653Z 03013KT 10SM SCT070 25/19 A2983 RMK AO2 SLP102 T02500189
KACK 181553Z 02012KT 10SM SCT013 OVC065 23/19 A2983 RMK AO2 SLP102 T02330194
KACK 181509Z 03014KT 10SM SCT009 SCT013 OVC035 22/20 A2983 RMK AO2 T02170200
KACK 181453Z 02016KT 10SM SCT009 BKN013 OVC035 22/19 A2983 RMK AO2 SLP101 T02220194 53008
KACK 181439Z 02013KT 10SM FEW005 BKN013 OVC020 21/19 A2982 RMK AO2 T02110194
KACK 181426Z 02016KT 10SM BKN005 OVC013 22/19 A2982 RMK AO2 T02170194
KACK 181409Z 01016KT 10SM FEW005 BKN014 OVC035 23/21 A2982 RMK AO2 T02280211
KACK 181353Z 36008KT 10SM BKN008 BKN035 OVC090 24/22 A2981 RMK AO2 CIG 006V012 SLP093 T02390217
KACK 181253Z 34005KT 8SM OVC005 22/21 A2981 RMK AO2 SLP094 T02220211
KACK 181153Z 30003KT 10SM OVC005 22/21 A2981 RMK AO2 RAE1056 SLP093 P0000 60000 T02170211 10217 20194 50002
KACK 181150Z 28003KT 10SM OVC005 22/21 A2981 RMK AO2 RAE1056 P0000
KACK 181053Z 26004KT 8SM -RA BKN010 OVC040 21/21 A2981 RMK AO2 RAB46 SLP093 P0000 T02110206
KACK 181003Z 28005KT 7SM SCT002 BKN037 OVC055 21/21 A2981 RMK AO2 T02060206
KACK 180953Z 21005KT 6SM BR BKN037 OVC050 20/20 A2980 RMK AO2 RAE04 SLP091 P0000 T02000200
KACK 180913Z AUTO 21007KT 6SM BR FEW001 BKN085 OVC110 20/20 A2979 RMK AO2 RAE04 P0000 T02000200
KACK 180853Z AUTO 18006KT 7SM -RA OVC090 20/20 A2978 RMK AO2 RAB30 SLP085 P0000 60000 T02000200 58001
KACK 180838Z AUTO 20006KT 7SM -RA SCT002 BKN090 OVC100 20/20 A2978 RMK AO2 RAB30 P0000 T02000200
KACK 180753Z AUTO 20005KT 7SM OVC002 20/20 A2978 RMK AO2 RAB28E41 SLP086 P0000 T02000200
KACK 180724Z AUTO 23006KT 3SM BR OVC002 20/20 A2979 RMK AO2 T02000200
KACK 180701Z AUTO 23007KT 1SM R24/P6000FT BR VV002 20/19 A2979 RMK AO2 T02000194
KACK 180653Z AUTO 24007KT 3/4SM R24/5000VP6000FT BR VV002 20/19 A2979 RMK AO2 SLP088 T02000194
KACK 180634Z AUTO 23007KT 3/4SM R24/3500VP6000FT BR VV002 19/19 A2979 RMK AO2 T01940194
KACK 180622Z AUTO 22004KT 1 3/4SM R24/6000VP6000FT BR OVC003 19/19 A2978 RMK AO2 T01940194
KACK 180600Z AUTO 23005KT 8SM BKN003 BKN110 20/19 A2978 RMK AO2 T02000194
KACK 180553Z AUTO 24005KT 10SM SCT003 BKN110 21/20 A2979 RMK AO2 SLP086 T02060200 10211 20206 58007
KACK 180534Z AUTO 23005KT 10SM SCT004 SCT110 21/20 A2979 RMK AO2 T02060200
KACK 180453Z AUTO 28007KT 10SM FEW100 21/20 A2980 RMK AO2 SLP090 T02110200 402440194
KACK 180400Z AUTO 26009KT 10SM SCT002 21/20 A2981 RMK AO2 T02060200
KACK 180353Z AUTO 25008KT 7SM BKN002 21/20 A2980 RMK AO2 SLP092 T02060200
KACK 180345Z AUTO 24007KT 3SM BR BKN002 21/21 A2981 RMK AO2 T02060206
KACK 180327Z AUTO 22007KT 1 3/4SM BR OVC002 21/21 A2981 RMK AO2 T02060206
KACK 180316Z AUTO 22007KT 3SM BR OVC002 21/21 A2981 RMK AO2 T02060206
KACK 180310Z AUTO 21009KT 1 1/2SM R24/5000VP6000FT BR OVC002 21/20 A2981 RMK AO2 T02060200
KACK 180253Z AUTO 21009KT 3/4SM R24/3500V4000FT BR VV002 21/20 A2981 RMK AO2 SLP093 T02060200 55012
KACK 180236Z AUTO 20008KT 1 1/4SM R24/4500VP6000FT BR OVC002 21/21 A2980 RMK AO2 T02060206
KACK 180228Z AUTO 19009KT 2SM BR OVC002 21/21 A2979 RMK AO2 T02060206
KACK 180153Z 19007KT 5SM BR BKN003 OVC007 21/21 A2979 RMK AO2 SLP089 T02110206
KACK 180053Z 19009KT 3SM BR OVC003 21/20 A2982 RMK AO2 SLP098 T02060200
KACK 172353Z 18010KT 1SM R24/5500VP6000FT BR VV002 21/20 A2984 RMK AO2 SLP105 T02060200 10239 20206 55004
KACK 172338Z 18011KT 1 3/4SM R24/6000VP6000FT BR OVC002 21/20 A2984 RMK AO2 T02060200
KACK 172253Z 19010KT 4SM BR OVC003 22/21 A2984 RMK AO2 SLP104 T02170211
KACK 172209Z 19012G19KT 7SM BKN004 22/21 A2984 RMK AO2 T02170211
KACK 172153Z 18014KT 7SM BKN005 OVC009 22/21 A2984 RMK AO2 SLP103 T02220211
KACK 172143Z 18012KT 8SM BKN005 OVC009 22/21 A2984 RMK AO2 T02220211
KACK 172053Z 18013KT 9SM SCT003 BKN012 23/21 A2985 RMK AO2 SLP109 T02280211 55006
KACK 172049Z 18012KT 10SM SCT003 BKN012 23/21 A2985 RMK AO2
KACK 171953Z 18014KT 10SM FEW003 23/21 A2986 RMK AO2 SLP110 T02280211
KACK 171933Z 18014KT 10SM SCT002 23/21 A2986 RMK AO2 T02330211
KACK 171853Z AUTO 19013KT 10SM BKN002 23/21 A2987 RMK AO2 SLP115 T02330211
KACK 171846Z 19013KT 10SM BKN002 23/21 A2987 RMK AO2 T02330211
KACK 171753Z 19014G22KT 10SM SCT002 23/22 A2988 RMK AO2 SLP118 T02330217 10244 20211 58014
KACK 171653Z 19017G21KT 10SM BKN003 24/22 A2989 RMK AO2 SLP122 T02390217
KACK 171553Z 20015KT 10SM OVC002 23/21 A2991 RMK AO2 SLP129 T02330211
KACK 171453Z 20014KT 10SM OVC002 23/22 A2992 RMK AO2 SLP132 T02330217 56007
KACK 171353Z 19012KT 5SM BR OVC002 22/21 A2993 RMK AO2 SLP134 T02170206
KACK 171253Z 20012KT 5SM BR OVC002 22/21 A2993 RMK AO2 SLP136 T02220211
KACK 171153Z 21011KT 4SM BR OVC002 21/21 A2994 RMK AO2 SLP139 T02110211 10211 20194 52001
KACK 171142Z 20011KT 3SM BR OVC002 21/21 A2994 RMK AO2 T02110211
KACK 171126Z 21010KT 1 1/2SM R24/5000VP6000FT BR OVC002 21/21 A2994 RMK AO2 T02060206
KACK 171113Z 21012KT 2 1/2SM BR OVC002 21/21 A2994 RMK AO2 T02060206
KACK 171053Z 21011KT 1SM R24/4500VP6000FT BR OVC002 21/21 A2994 RMK AO2 SLP139 T02060206
KACK 171035Z 20009KT 1 1/2SM R24/4000FT BR OVC002 21/21 A2994 RMK AO2 T02060206
KACK 171007Z 20011KT 1/2SM R24/2600V4000FT FG VV002 21/21 A2994 RMK AO2 T02060206
KACK 170953Z 20012KT 1 3/4SM R24/6000VP6000FT BR OVC002 21/20 A2994 RMK AO2 SLP138 T02060200
KACK 170941Z AUTO 20011KT 1 1/2SM R24/5500VP6000FT BR OVC002 20/20 A2994 RMK AO2 T02000200
KACK 170900Z AUTO 20009KT 1/2SM R24/2200V2800FT FG VV002 20/20 A2994 RMK AO2 T02000200
KACK 170853Z AUTO 20010KT 1/2SM R24/2000V2200FT FG VV002 21/20 A2994 RMK AO2 SLP138 T02060200 58010
KACK 170846Z AUTO 20009KT 1/4SM R24/1800V2000FT FG VV002 21/20 A2994 RMK AO2 T02060200
KACK 170826Z AUTO 21009KT 1/2SM R24/2600V4000FT FG VV002 21/21 A2994 RMK AO2 T02060206